Latest Automated Weather Stations
Site ID Site Name Temperature Humidity Wind Speed Wind Direction Precipitation Pressure Solar Radiation Last Updated
98 Science Garden, Quezon City 29 °C 86 % 3.6 km/hr NW 1 mm/hr 1003.1 95.8 July 21, 2024, 1:00 pm
5001 San Jose Synoptic Station 34 °C 63 % 10.8 km/hr WNW 0 mm/hr 1008.9 906.2 July 21, 2024, 12:30 pm
5008 Tampakan, South Cotobato 33 °C 57 % 3.6 km/hr W 0 mm/hr 995.3 948.1 July 21, 2024, 12:30 pm
5010 Ozamis, Misamis Occidental 26 °C 93 % 3.6 km/hr SSW 0 mm/hr 961 201.2 July 21, 2024, 12:00 pm
5012 Laoag, Ilocos Norte AWS 32 °C 69 % 7.2 km/hr WSW 0 mm/hr 1008.6 751.1 July 21, 2024, 1:00 pm
5013 San Enrique, Iloilo AWS 31 °C 77 % 10.8 km/hr SSW 0 mm/hr 1005.5 298.8 July 21, 2024, 1:00 pm
5014 Daet, Camarines Norte AWS 36 °C 57 % 7.2 km/hr W 0 mm/hr 1006.2 418.7 July 21, 2024, 1:00 pm
5015 Guiuan, Eastern Samar AWS 35 °C 62 % 7.2 km/hr SSW 0 mm/hr 1066.1 980.3 July 21, 2024, 1:00 pm
5017 Batac,Ilocos Norte AWS 32 °C 72 % 14.4 km/hr W 1 mm/hr 1007.8 1048.9 July 21, 2024, 1:00 pm
5018 Sinait, Ilocos Sur AWS 31 °C 73 % 3.6 km/hr WSW 0 mm/hr -- 800 July 21, 2024, 1:00 pm
5019 Bacnotan, La Union AWS 32 °C 58 % 0 km/hr N 0 mm/hr -- 407.6 July 21, 2024, 1:00 pm
5023 San Marcelino, Zambales AWS 29 °C 82 % 7.2 km/hr SE 0 mm/hr -- 269.5 July 21, 2024, 1:00 pm
5024 Lal-lo, Cagayan AWS -- °C -- % 10.8 km/hr N 0 mm/hr -- 0 July 21, 2024, 1:00 pm
5025 Tuguegarao, Cagayan AWS 31 °C 66 % 3.6 km/hr NNE 0 mm/hr 1002.2 278.3 July 21, 2024, 1:00 pm
5026 Echague, Isabela AWS -- °C -- % 3.6 km/hr ENE 0 mm/hr 1001.6 156.1 July 21, 2024, 1:00 pm
5027 Bayombong,Nueva Vizcaya AWS -- °C 56 % 7.2 km/hr ENE 0 mm/hr 573.4 477.3 July 21, 2024, 1:00 pm
5029 San Ildefonso, Bulacan AWS 29 °C 78 % 7.2 km/hr S 0 mm/hr 1005.5 313.4 July 21, 2024, 1:00 pm
5032 Camiling, Tarlac AWS 33 °C 64 % 7.2 km/hr N 0 mm/hr -- 562.9 July 21, 2024, 1:00 pm
5033 Tanay, Rizal AWS 25 °C 94 % 14.4 km/hr WNW 0 mm/hr 938.4 281.6 July 21, 2024, 1:00 pm
5034 UP Los Banos, Laguna AWS 30 °C 77 % 7.2 km/hr WNW 0 mm/hr 1005.1 467.5 July 21, 2024, 1:00 pm
5035 Indang, Cavite AWS 29 °C 78 % 0 km/hr WNW 0 mm/hr 975.6 337.9 July 21, 2024, 1:00 pm
5037 Pili Camarines Sur AWS -- °C -- % 7.2 km/hr WSW 0 mm/hr 1003.5 433.1 July 21, 2024, 1:00 pm
5038 Guinobatan, Albay AWS 30 °C 100 % 3.6 km/hr W 0 mm/hr 1000.4 346 July 21, 2024, 1:00 pm
5039 Virac, Catanduanes AWS 30 °C 76 % 3.6 km/hr W 0 mm/hr 1003.9 297.3 July 21, 2024, 1:00 pm
5041 Sorsogon, Sorsogon AWS -- °C -- % 18 km/hr ESE 0 mm/hr 938 489.2 July 21, 2024, 1:10 pm
5042 Gamay, Northern Samar AWS 24 °C 94 % 0 km/hr N 0 mm/hr 1007 0 July 19, 2024, 2:50 am
5043 Baybay, Leyte AWS 31 °C 72 % 3.6 km/hr S 0 mm/hr 1008.1 631.6 July 21, 2024, 1:00 pm
5047 Mambusao, Capiz AWS -- °C -- % 0 km/hr NNW 2 mm/hr 1005.2 119.7 July 21, 2024, 1:00 pm
5048 Sibalom, Antique AWS -- °C -- % 3.6 km/hr S 0 mm/hr 1008.7 454.5 July 21, 2024, 1:00 pm
5052 Mambajao, Camiguin AWS -- °C -- % 10.8 km/hr WSW 0 mm/hr 1007.2 1006.8 July 21, 2024, 1:00 pm
5054 Nasipit, Agusan del Norte AWS 32 °C 69 % 18 km/hr NNW 0 mm/hr -- 860.2 July 21, 2024, 1:00 pm
5057 Nabunturan, Davao de Oro AWS -- °C 75 % 7.2 km/hr WSW 0 mm/hr 998.8 820.6 July 21, 2024, 1:00 pm
5058 Tagum, Davao del Norte AWS -- °C -- % 10.8 km/hr SSE 0 mm/hr 1005.9 775.1 July 21, 2024, 1:00 pm
5059 Kabacan, Cotabato AWS -- °C -- % 3.6 km/hr SSW 0 mm/hr 995.8 945.2 July 21, 2024, 1:00 pm
5060 Tantangan, South Cotabato AWS 33 °C 65 % 7.2 km/hr SE 0 mm/hr -- 955 July 21, 2024, 1:00 pm
5061 Valencia, Bukidnon AWS 30 °C 69 % 7.2 km/hr S 0 mm/hr -- 528.6 July 21, 2024, 1:00 pm
5068 RTR Philrice, Agusan del Norte AWS 32 °C 73 % 3.6 km/hr WNW 0 mm/hr -- 944.4 July 21, 2024, 1:00 pm
5072 Naval, Biliran AWS 31 °C 69 % 7.2 km/hr WNW 0 mm/hr 1001.5 635.3 July 21, 2024, 1:00 pm
5076 Maddela, Quirino AWS -- °C 30 % 0 km/hr NNE 0 mm/hr -- 181.4 July 21, 2024, 1:00 pm
5077 Apayao AWS -- °C -- % 10.8 km/hr NNW 0 mm/hr 1005.2 513.8 July 21, 2024, 1:00 pm
5079 San Jacinto, Ticao Island, Masbate AWS 31 °C 68 % 10.8 km/hr WSW 0 mm/hr 994.2 606.4 July 21, 2024, 1:00 pm
5081 Hinunangan, Southern Leyte AWS 29 °C 85 % 10.8 km/hr S 0 mm/hr 1006.9 618.2 July 21, 2024, 1:00 pm
5104 Sta Ana, Cagayan AWS -- °C -- % -- km/hr -- -- mm/hr -- -- July 21, 2024, 1:00 pm
5106 Palanan, Isabela AWS -- °C -- % 0 km/hr N 0 mm/hr 1006 21.6 July 21, 2024, 1:00 pm
5107 Baler Synoptic Station AWS 27 °C 79 % 18 km/hr WSW 0 mm/hr 986.4 174.2 July 21, 2024, 1:00 pm
5110 Dagupan Pangasinan AWS -- °C 26 % 0 km/hr N 0 mm/hr 1007 593.8 July 21, 2024, 1:00 pm
5111 Hacienda Luisita, Tarlac AWS 32 °C 70 % 3.6 km/hr SSE 0 mm/hr 1003.5 243 July 21, 2024, 1:00 pm
5112 Tagaytay AWS 27 °C 83 % 7.2 km/hr N 0 mm/hr 937.8 434.1 July 21, 2024, 1:00 pm
5113 Ambulong Tanauan Batangas AWS 31 °C 72 % 14.4 km/hr W 0 mm/hr 1006.1 550.7 July 21, 2024, 1:00 pm
5114 Tayabas, Quezon AWS 31 °C 62 % 0 km/hr ENE 0 mm/hr 989.4 411.4 July 21, 2024, 12:50 pm
5115 Infanta, Quezon AWS -- °C -- % -- km/hr -- -- mm/hr -- -- July 19, 2024, 4:25 pm
5116 Taal, Batangas AWS 30 °C 65 % 7.2 km/hr WSW 0 mm/hr 998.9 552.2 July 21, 2024, 1:00 pm
5117 Lipa, Batangas AWS 28 °C 78 % 0 km/hr N 0 mm/hr 979.6 408.1 July 21, 2024, 1:00 pm
5118 Mabini, Batangas AWS 30 °C 64 % 10.8 km/hr NW 0 mm/hr 1001.8 589.8 July 21, 2024, 1:03 pm
5120 Puerto Galera, Mindoro Oriental AWS 30 °C 69 % 10.8 km/hr SW 0 mm/hr 1007.1 429 July 21, 2024, 1:00 pm
5121 Sta Cruz, Mindoro Occidental AWS 25 °C 84 % 7.2 km/hr NNW 1 mm/hr 1008.2 44.5 July 21, 2024, 1:00 pm
5123 Coron, Palawan AWS 31 °C 72 % 10.8 km/hr SW 0 mm/hr 1003.5 419.2 July 21, 2024, 1:00 pm
5124 Puerto Princesa, Palawan AWS 30 °C 71 % 7.2 km/hr SSW 0 mm/hr 1006 341.5 July 21, 2024, 12:50 pm
5125 Cuyo, Palawan AWS -- °C -- % 7.2 km/hr SW 0 mm/hr 1008.3 930.3 July 21, 2024, 1:00 pm
5126 Juban Sorsogon Synoptic 31 °C 68 % 7.2 km/hr WSW 0 mm/hr 799.8 442.6 July 21, 2024, 1:00 pm
5128 Legazpi AWS -- °C -- % 7.2 km/hr S 0 mm/hr 1005 446.1 July 21, 2024, 1:00 pm
5130 Catarman Northern Samar AWS 32 °C 61 % 14.4 km/hr WSW 0 mm/hr 972.8 691 July 21, 2024, 1:00 pm
5131 Tacloban, Leyte AWS 32 °C 61 % 3.6 km/hr SW 0 mm/hr 1006.9 318.9 July 21, 2024, 1:00 pm
5132 Maasin, Southern Leyte AWS 31 °C 70 % 10.8 km/hr SSW 0 mm/hr 1000.2 971.5 July 21, 2024, 1:00 pm
5135 Dalaguete, Cebu AWS -- °C 100 % 7.2 km/hr W 0 mm/hr 925.7 704.4 July 21, 2024, 1:00 pm
5136 Iloilo Radar Station AWS 29 °C 72 % 18 km/hr SW 0 mm/hr 1007.2 302.9 July 21, 2024, 1:00 pm
5137 Polillo Quezon 29 °C 96 % 3.6 km/hr W 0 mm/hr 1004.9 432.8 July 14, 2024, 11:30 am
5138 Mactan, Cebu AWS 32 °C 53 % 7.2 km/hr SW 0 mm/hr 796.6 861.5 July 21, 2024, 1:05 pm
5139 Argao, Cebu AWS 30 °C 59 % 7.2 km/hr SW 0 mm/hr 989.9 475.4 July 21, 2024, 12:50 pm
5140 Surigao Synoptic Station AWS -- °C -- % 7.2 km/hr NW 0 mm/hr 1003.4 1274.3 July 21, 2024, 1:00 pm
5141 Butuan, Agusan del Norte AWS 33 °C 63 % 10.8 km/hr N 0 mm/hr 1006.3 958.9 July 21, 2024, 1:00 pm
5142 Hinatuan, Surigao del Sur -- °C -- % 3.6 km/hr E 0 mm/hr 1041.2 515.4 July 21, 2024, 1:00 pm
5143 Sindangan Zamboanga del Norte 35 °C 52 % 3.6 km/hr WSW 0 mm/hr 1007.9 580.9 July 21, 2024, 1:00 pm
5144 Malaybalay Bukidnon AWS 26 °C 73 % 3.6 km/hr SE 0 mm/hr 911 325.3 July 21, 2024, 1:00 pm
5145 Maasim, Sarangani AWS -- °C -- % 7.2 km/hr SW 0 mm/hr 1009.2 692.3 July 21, 2024, 1:00 pm
5147 Davao City AWS 31 °C 56 % 10.8 km/hr SSW 0 mm/hr 1006 1005.7 July 21, 2024, 1:00 pm
5148 Bago Oshiro, Talomo, Davao City AWS 30 °C 67 % 3.6 km/hr SSE 0 mm/hr 997.2 995.5 July 21, 2024, 1:00 pm
5149 Gen. Santos City AWS 29 °C 68 % 14.4 km/hr SSE 0 mm/hr 995.9 491.4 July 21, 2024, 1:00 pm
5150 Kiamba, Sarangani AWS 30 °C 56 % 7.2 km/hr S 0 mm/hr -- 872.3 July 21, 2024, 1:00 pm
5151 Zamboanga City AWS 32 °C 75 % 10.8 km/hr WNW 0 mm/hr 1008.5 864 July 21, 2024, 1:00 pm
5154 Jomalig, Quezon AWS 31 °C 86 % 7.2 km/hr E 0 mm/hr 1010.2 511.9 July 3, 2024, 3:15 pm
5155 Calayan, Cagayan AWS 31 °C 71 % 7.2 km/hr SE 0 mm/hr 1005.5 354.3 July 21, 2024, 1:00 pm
5157 Bangui, Ilocos Norte 28 °C 97 % 14.4 km/hr S 0 mm/hr 993.7 280.4 July 21, 2024, 1:00 pm
5158 Tabuk, Kalinga AWS -- °C -- % 3.6 km/hr ESE 0 mm/hr 998.4 355 July 21, 2024, 1:00 pm
5159 Maconacon, Isabela AWS -- °C -- % 0 km/hr S 0 mm/hr 1005.7 54.4 July 21, 2024, 1:00 pm
5160 Dilasag, Aurora AWS -- °C -- % 0 km/hr W 0 mm/hr 1004.4 90.5 July 21, 2024, 1:00 pm
5161 Hermosa, Bataan AWS 28 °C 78 % 3.6 km/hr N 0 mm/hr 1001.6 126.3 July 21, 2024, 1:00 pm
5162 Mulanay, Quezon AWS 30 °C 71 % 7.2 km/hr SW 0 mm/hr 1002.5 579.7 July 21, 2024, 1:00 pm
5163 Garchitorena, Camarines Sur AWS -- °C -- % 3.6 km/hr SW 0 mm/hr 1003.9 407.1 July 21, 2024, 1:00 pm
5164 Villaba, Leyte AWS 31 °C 73 % 10.8 km/hr SW 0 mm/hr 1007.6 229.8 July 21, 2024, 1:00 pm
5166 Tuburan, Cebu AWS 30 °C 65 % 7.2 km/hr SSW 0 mm/hr 1001.5 143.3 July 21, 2024, 12:50 pm
5167 Camotes Island, Poro, Cebu AWS 31 °C 71 % 18 km/hr S 0 mm/hr 1007.7 402.2 July 21, 2024, 1:00 pm
5169 Himamaylan, Negros Occidental AWS 28 °C 80 % 21.6 km/hr WSW 0 mm/hr 1006 488.8 July 21, 2024, 12:50 pm
5170 Cauayan, Negros Occidental AWS 29 °C 67 % 10.8 km/hr WSW 0 mm/hr 1006.8 823.6 July 21, 2024, 12:50 pm
5172 Dumaguete Synop Station 31 °C 55 % 3.6 km/hr ENE 0 mm/hr 1006.9 426.1 July 21, 2024, 12:50 pm
5174 Lanuza, Surigao del Sur AWS 31 °C 73 % 0 km/hr N 0 mm/hr 1009.4 0 July 21, 2024, 1:00 pm
5175 Loreto, Agusan del Sur AWS 31 °C 69 % 3.6 km/hr SSE 0 mm/hr 1005.3 416.7 July 21, 2024, 1:00 pm
5176 Baganga, Davao Oriental AWS 32 °C 64 % 7.2 km/hr ESE 0 mm/hr -- 701.6 July 21, 2024, 1:00 pm
5177 Don Marcelino, Davao Occidental AWS -- °C -- % -- km/hr -- -- mm/hr -- -- July 21, 2024, 1:00 pm
5178 Esperanza, Sultan Kudarat AWS 31 °C 64 % 3.6 km/hr NE 0 mm/hr 1003.3 419.1 July 21, 2024, 1:00 pm
5179 Senator Ninoy Aquino, Sultan Kudarat AWS 28 °C 57 % 18 km/hr WSW 0 mm/hr 931.3 687.8 July 21, 2024, 1:00 pm
5180 Libungan, North Cotabato AWS 30 °C 65 % 3.6 km/hr NNW 0 mm/hr 996.6 817.4 July 21, 2024, 1:00 pm
5181 Glan, Sarangani AWS 30 °C 64 % 3.6 km/hr WNW 0 mm/hr 902.1 498.1 July 21, 2024, 1:00 pm
5182 Lanise, Claveria, Mis. Oriental 25 °C 75 % 14.4 km/hr W 0 mm/hr 918.9 1045.1 July 21, 2024, 1:00 pm
5183 Laguindingan, Misamis Oriental AWS 30 °C 64 % 25.2 km/hr WNW 0 mm/hr 1001.3 898.3 July 21, 2024, 1:00 pm
5184 Musuan, Bukidnon AWS 29 °C 66 % 14.4 km/hr S 0 mm/hr 975 461.4 July 21, 2024, 1:00 pm
5185 Lantapan, Bukidnon AWS 26 °C 76 % 3.6 km/hr SSE 0 mm/hr 946 110.1 July 21, 2024, 1:00 pm
5186 Kabasalan, Zamboanga Sibugay AWS 29 °C 74 % 7.2 km/hr SW 0 mm/hr 1007.7 0 July 21, 2024, 12:50 pm
5187 La Libertad, Zamboanga del Norte AWS 30 °C 66 % 3.6 km/hr SW 0 mm/hr 988.4 412.8 July 21, 2024, 1:00 pm
5188 Sirawai, Zamboanga del Norte AWS 31 °C 70 % 14.4 km/hr W 0 mm/hr 1007.9 921.8 July 21, 2024, 12:50 pm
5189 Pagadian City, Zamboanga del Sur AWS 26 °C 90 % 0 km/hr SSW 0 mm/hr 799.4 235.8 July 21, 2024, 1:00 pm
5190 Dumingag, Zamboanga del Sur AWS 29 °C 79 % 10.8 km/hr ENE 0 mm/hr 1002.1 253.6 July 21, 2024, 1:00 pm
5191 Pitogo, Zamboanga del Sur AWS 30 °C 72 % 7.2 km/hr S 0 mm/hr 1007.9 657.7 July 21, 2024, 1:00 pm